createdAt,value
2022-10-04T00:01:11.104Z,11.50
2022-10-04T00:03:44.849Z,11.50
2022-10-04T00:06:21.505Z,11.50
2022-10-04T00:08:55.075Z,11.40
2022-10-04T00:11:27.111Z,11.40
2022-10-04T00:13:57.520Z,11.40
2022-10-04T00:16:31.210Z,11.40
2022-10-04T00:19:17.450Z,11.40
2022-10-04T00:22:12.648Z,11.40
2022-10-04T00:25:22.470Z,11.40
2022-10-04T00:28:17.901Z,11.30
2022-10-04T00:30:46.208Z,11.30
2022-10-04T00:33:38.411Z,11.30
2022-10-04T00:36:48.445Z,11.30
2022-10-04T00:39:43.239Z,11.30
2022-10-04T00:42:47.989Z,11.30
2022-10-04T00:45:40.451Z,11.30
2022-10-04T00:48:35.368Z,11.30
2022-10-04T00:51:11.887Z,11.30
2022-10-04T00:53:51.104Z,11.30
2022-10-04T00:56:25.907Z,11.30
2022-10-04T00:59:16.427Z,11.30
2022-10-04T01:01:48.799Z,11.40
2022-10-04T01:04:28.812Z,11.40
2022-10-04T01:07:00.089Z,11.40
2022-10-04T01:09:29.597Z,11.40
2022-10-04T01:12:04.748Z,11.40
2022-10-04T01:14:45.686Z,11.40
2022-10-04T01:17:13.816Z,11.30
2022-10-04T01:19:52.258Z,11.30
2022-10-04T01:22:41.352Z,11.30
2022-10-04T01:25:10.453Z,11.30
2022-10-04T01:27:43.679Z,11.30
2022-10-04T01:30:14.192Z,11.20
2022-10-04T01:32:45.049Z,11.20
2022-10-04T01:35:14.987Z,11.20
2022-10-04T01:37:44.484Z,11.20
2022-10-04T01:40:13.181Z,11.20
2022-10-04T01:42:46.643Z,11.20
2022-10-04T01:45:20.103Z,11.20
2022-10-04T01:47:54.282Z,11.20
2022-10-04T01:50:32.811Z,11.20
2022-10-04T01:53:11.636Z,11.20
2022-10-04T01:55:42.625Z,11.20
2022-10-04T01:58:15.593Z,11.20
2022-10-04T02:00:51.497Z,11.20
2022-10-04T02:03:25.426Z,11.20
2022-10-04T02:05:59.974Z,11.20
2022-10-04T02:08:32.975Z,11.20
2022-10-04T02:11:03.047Z,11.20
2022-10-04T02:13:38.107Z,11.20
2022-10-04T02:16:11.558Z,11.20
2022-10-04T02:18:41.822Z,11.20
2022-10-04T02:21:10.494Z,11.20
2022-10-04T02:23:42.105Z,11.20
2022-10-04T02:26:11.841Z,11.20
2022-10-04T02:28:40.542Z,11.20
2022-10-04T02:31:27.590Z,11.20
2022-10-04T02:33:59.469Z,11.20
2022-10-04T02:36:29.529Z,11.20
2022-10-04T02:39:03.827Z,11.30
2022-10-04T02:41:35.746Z,11.30
2022-10-04T02:44:11.266Z,11.20
2022-10-04T02:46:47.542Z,11.30
2022-10-04T02:49:25.503Z,11.30
2022-10-04T02:52:01.457Z,11.30
2022-10-04T02:54:37.115Z,11.30
2022-10-04T02:57:05.884Z,11.30
2022-10-04T02:59:35.629Z,11.30
2022-10-04T03:02:03.910Z,11.30
2022-10-04T03:04:38.463Z,11.30
2022-10-04T03:07:09.766Z,11.30
2022-10-04T03:09:41.151Z,11.30
2022-10-04T03:12:13.993Z,11.30
2022-10-04T03:14:42.287Z,11.30
2022-10-04T03:17:10.825Z,11.30
2022-10-04T03:19:39.891Z,11.30
2022-10-04T03:22:10.399Z,11.40
2022-10-04T03:24:46.983Z,11.30
2022-10-04T03:27:18.227Z,11.30
2022-10-04T03:29:46.794Z,11.30
2022-10-04T03:32:16.847Z,11.30
2022-10-04T03:34:57.146Z,11.20
2022-10-04T03:37:27.191Z,11.20
2022-10-04T03:39:58.281Z,11.20
2022-10-04T03:42:28.927Z,11.20
2022-10-04T03:45:01.952Z,11.30
2022-10-04T03:47:33.707Z,11.30
2022-10-04T03:50:06.493Z,11.20
2022-10-04T03:52:37.885Z,11.20
2022-10-04T03:55:09.601Z,11.30
2022-10-04T03:57:39.148Z,11.30
2022-10-04T04:00:08.508Z,11.30
2022-10-04T04:02:46.199Z,11.30
2022-10-04T04:05:20.930Z,11.30
2022-10-04T04:07:57.528Z,11.30
2022-10-04T04:10:30.622Z,11.30
2022-10-04T04:13:02.333Z,11.30
2022-10-04T04:15:32.571Z,11.30
2022-10-04T04:18:04.100Z,11.40
2022-10-04T04:20:35.115Z,11.40
2022-10-04T04:23:11.026Z,11.40
2022-10-04T04:25:43.312Z,11.40
2022-10-04T04:28:22.860Z,11.50
2022-10-04T04:30:54.559Z,11.50
2022-10-04T04:33:31.094Z,11.50
2022-10-04T04:36:06.456Z,11.50
2022-10-04T04:38:56.399Z,11.50
2022-10-04T04:41:27.973Z,11.50
2022-10-04T04:43:56.318Z,11.60
2022-10-04T04:46:27.495Z,11.60
2022-10-04T04:49:01.212Z,11.60
2022-10-04T04:51:31.425Z,11.60
2022-10-04T04:54:01.963Z,11.60
2022-10-04T04:56:32.389Z,11.70
2022-10-04T04:59:04.471Z,11.60
2022-10-04T05:01:36.147Z,11.60
2022-10-04T05:04:06.901Z,11.70
2022-10-04T05:06:36.417Z,11.60
2022-10-04T05:09:05.469Z,11.70
2022-10-04T05:11:39.844Z,11.70
2022-10-04T05:14:10.807Z,11.70
2022-10-04T05:16:44.249Z,11.70
2022-10-04T05:19:17.571Z,11.70
2022-10-04T05:21:48.426Z,11.70
2022-10-04T05:24:23.292Z,11.70
2022-10-04T05:26:55.158Z,11.70
2022-10-04T05:29:26.884Z,11.70
2022-10-04T05:32:04.288Z,11.70
2022-10-04T05:34:39.990Z,11.80
2022-10-04T05:37:20.683Z,11.80
2022-10-04T05:40:00.027Z,11.80
2022-10-04T05:42:38.598Z,11.80
2022-10-04T05:45:20.781Z,11.80
2022-10-04T05:47:49.414Z,11.80
2022-10-04T05:50:20.854Z,11.80
2022-10-04T05:52:52.440Z,11.80
2022-10-04T05:55:28.752Z,11.80
2022-10-04T05:58:25.896Z,11.80
2022-10-04T06:01:18.755Z,11.80
2022-10-04T06:04:10.175Z,11.80
2022-10-04T06:06:42.345Z,11.80
2022-10-04T06:09:19.995Z,11.90
2022-10-04T06:12:02.281Z,11.90
2022-10-04T06:14:58.596Z,11.90
2022-10-04T06:17:40.715Z,11.90
2022-10-04T06:20:19.073Z,12.00
2022-10-04T06:22:49.669Z,12.00
2022-10-04T06:25:27.487Z,12.00
2022-10-04T06:28:13.472Z,12.00
2022-10-04T06:30:57.997Z,12.00
2022-10-04T06:33:44.595Z,12.10
2022-10-04T06:36:34.682Z,12.10
2022-10-04T06:39:28.108Z,12.10
2022-10-04T06:42:15.667Z,12.10
2022-10-04T06:45:01.723Z,12.10
2022-10-04T06:47:46.601Z,12.20
2022-10-04T06:50:24.996Z,12.20
2022-10-04T06:53:24.566Z,12.20
2022-10-04T06:56:14.912Z,12.30
2022-10-04T06:59:19.416Z,12.40
2022-10-04T07:01:51.496Z,12.40
2022-10-04T07:04:49.941Z,12.40
2022-10-04T07:07:27.126Z,12.40
2022-10-04T07:10:01.238Z,12.50
2022-10-04T07:12:30.613Z,12.50
2022-10-04T07:15:03.735Z,12.50
2022-10-04T07:17:40.118Z,12.60
2022-10-04T07:20:21.722Z,12.60
2022-10-04T07:22:57.147Z,12.60
2022-10-04T07:25:30.594Z,12.70
2022-10-04T07:28:22.040Z,12.70
2022-10-04T07:30:53.985Z,12.80
2022-10-04T07:33:23.283Z,12.80
2022-10-04T07:35:57.380Z,12.90
2022-10-04T07:38:30.508Z,12.90
2022-10-04T07:41:10.345Z,12.90
2022-10-04T07:43:49.027Z,13.00
2022-10-04T07:46:25.594Z,13.00
2022-10-04T07:48:54.383Z,13.00
2022-10-04T07:51:34.207Z,13.00
2022-10-04T07:54:10.335Z,13.00
2022-10-04T07:56:47.342Z,13.00
2022-10-04T07:59:33.220Z,13.10
2022-10-04T08:02:17.664Z,13.10
2022-10-04T08:04:54.319Z,13.10
2022-10-04T08:07:32.311Z,13.20
2022-10-04T08:10:08.409Z,13.20
2022-10-04T08:12:49.563Z,13.20
2022-10-04T08:15:36.075Z,13.20
2022-10-04T08:18:22.519Z,13.30
2022-10-04T08:20:57.916Z,13.30
2022-10-04T08:23:57.101Z,13.40
2022-10-04T08:26:46.304Z,13.40
2022-10-04T08:29:47.291Z,13.50
2022-10-04T08:32:27.577Z,13.50
2022-10-04T08:35:16.338Z,13.60
2022-10-04T08:38:00.371Z,13.70
2022-10-04T08:41:16.446Z,13.70
2022-10-04T08:44:17.098Z,13.80
2022-10-04T08:47:10.703Z,13.80
2022-10-04T08:50:22.907Z,14.00
2022-10-04T08:53:08.734Z,14.00
2022-10-04T08:55:58.442Z,14.10
2022-10-04T08:58:55.698Z,14.20
2022-10-04T09:01:53.574Z,14.30
2022-10-04T09:04:47.856Z,14.40
2022-10-04T09:07:46.293Z,14.50
2022-10-04T09:10:45.496Z,14.60
2022-10-04T09:13:34.451Z,14.60
2022-10-04T09:16:16.691Z,14.70
2022-10-04T09:19:00.367Z,14.70
2022-10-04T09:21:44.091Z,14.80
2022-10-04T09:24:59.843Z,14.80
2022-10-04T09:28:01.353Z,14.90
2022-10-04T09:30:43.627Z,14.90
2022-10-04T09:33:57.667Z,15.00
2022-10-04T09:36:52.617Z,15.00
2022-10-04T09:39:54.547Z,15.00
2022-10-04T09:42:40.989Z,15.10
2022-10-04T09:45:35.470Z,15.10
2022-10-04T09:48:25.372Z,15.20
2022-10-04T09:51:32.302Z,15.30
2022-10-04T09:54:30.475Z,15.30
2022-10-04T09:57:21.783Z,15.40
2022-10-04T10:00:23.338Z,15.40
2022-10-04T10:03:21.278Z,15.50
2022-10-04T10:06:12.296Z,15.50
2022-10-04T10:08:55.583Z,15.60
2022-10-04T10:11:49.652Z,15.60
2022-10-04T10:14:55.713Z,15.70
2022-10-04T10:17:37.953Z,15.70
2022-10-04T10:20:44.622Z,15.80
2022-10-04T10:23:49.059Z,15.80
2022-10-04T10:26:42.702Z,15.90
2022-10-04T10:29:37.166Z,16.00
2022-10-04T10:32:45.883Z,16.10
2022-10-04T10:35:43.372Z,16.10
2022-10-04T10:38:35.573Z,16.20
2022-10-04T10:41:12.454Z,16.30
2022-10-04T10:44:03.369Z,16.40
2022-10-04T10:46:47.851Z,16.40
2022-10-04T10:49:37.811Z,16.50
2022-10-04T10:52:42.575Z,16.50
2022-10-04T10:55:30.948Z,16.60
2022-10-04T10:58:37.101Z,16.70
2022-10-04T11:01:23.806Z,16.70
2022-10-04T11:04:18.651Z,16.70
2022-10-04T11:07:16.415Z,16.80
2022-10-04T11:10:10.757Z,16.80
2022-10-04T11:13:08.299Z,16.80
2022-10-04T11:16:03.294Z,16.90
2022-10-04T11:19:04.763Z,16.90
2022-10-04T11:22:07.535Z,16.90
2022-10-04T11:25:17.827Z,17.00
2022-10-04T11:27:57.391Z,17.00
2022-10-04T11:30:29.852Z,17.10
2022-10-04T11:33:39.735Z,17.10
2022-10-04T11:36:29.470Z,17.10
2022-10-04T11:39:24.653Z,17.20
2022-10-04T11:41:57.708Z,17.20
2022-10-04T11:44:49.457Z,17.20
2022-10-04T11:47:36.081Z,17.20
2022-10-04T11:50:27.017Z,17.20
2022-10-04T11:53:25.871Z,17.30
2022-10-04T11:56:35.707Z,17.30
2022-10-04T11:59:19.633Z,17.30
2022-10-04T12:02:17.037Z,17.30
2022-10-04T12:05:21.170Z,17.30
2022-10-04T12:08:05.446Z,17.30
2022-10-04T12:10:38.466Z,17.30
2022-10-04T12:13:39.073Z,17.40
2022-10-04T12:16:36.344Z,17.40
2022-10-04T12:19:40.741Z,17.50
2022-10-04T12:22:43.754Z,17.50
2022-10-04T12:25:49.240Z,17.50
2022-10-04T12:28:44.245Z,17.50
2022-10-04T12:31:24.784Z,17.50
2022-10-04T12:33:59.800Z,17.60
2022-10-04T12:36:57.908Z,17.60
2022-10-04T12:40:14.542Z,17.60
2022-10-04T12:42:53.333Z,17.60
2022-10-04T12:45:50.246Z,17.70
2022-10-04T12:48:28.676Z,17.70
2022-10-04T12:51:08.256Z,17.70
2022-10-04T12:53:49.221Z,17.70
2022-10-04T12:56:32.110Z,17.70
2022-10-04T12:59:15.413Z,17.70
2022-10-04T13:01:52.976Z,17.80
2022-10-04T13:04:30.519Z,17.80
2022-10-04T13:07:15.973Z,17.80
2022-10-04T13:10:19.145Z,17.80
2022-10-04T13:13:20.343Z,17.80
2022-10-04T13:18:56.426Z,17.80
2022-10-04T13:21:52.890Z,17.80
2022-10-04T13:24:29.356Z,17.80
2022-10-04T13:27:03.482Z,17.80
2022-10-04T13:29:37.232Z,17.80
2022-10-04T13:32:14.494Z,17.80
2022-10-04T13:34:49.347Z,17.90
2022-10-04T13:37:31.478Z,17.90
2022-10-04T13:40:21.505Z,17.90
2022-10-04T13:43:22.641Z,17.90
2022-10-04T13:46:06.751Z,17.90
2022-10-04T13:48:49.656Z,18.00
2022-10-04T13:52:17.143Z,18.00
2022-10-04T13:55:13.798Z,18.00
2022-10-04T13:57:50.857Z,18.10
2022-10-04T14:00:36.023Z,18.00
2022-10-04T14:03:27.745Z,18.00
2022-10-04T14:06:36.551Z,18.10
2022-10-04T14:09:26.673Z,18.10
2022-10-04T14:12:54.858Z,18.10
2022-10-04T14:15:52.752Z,18.10
2022-10-04T14:18:55.800Z,18.10
2022-10-04T14:21:51.365Z,18.10
2022-10-04T14:25:06.810Z,18.20
2022-10-04T14:28:13.308Z,18.10
2022-10-04T14:30:56.627Z,18.10
2022-10-04T14:34:07.288Z,18.20
2022-10-04T14:37:03.699Z,18.10
2022-10-04T14:40:00.836Z,18.20
2022-10-04T14:42:52.183Z,18.20
2022-10-04T14:45:37.959Z,18.20
2022-10-04T14:48:38.854Z,18.20
2022-10-04T14:51:42.408Z,18.20
2022-10-04T14:54:16.942Z,18.20
2022-10-04T14:57:01.609Z,18.20
2022-10-04T14:59:53.787Z,18.20
2022-10-04T15:02:38.446Z,18.20
2022-10-04T15:05:35.604Z,18.20
2022-10-04T15:08:39.303Z,18.20
2022-10-04T15:11:10.362Z,18.20
2022-10-04T15:13:50.592Z,18.20
2022-10-04T15:16:33.596Z,18.20
2022-10-04T15:19:09.568Z,18.20
2022-10-04T15:21:46.456Z,18.20
2022-10-04T15:24:32.687Z,18.20
2022-10-04T15:27:44.319Z,18.20
2022-10-04T15:30:20.916Z,18.20
2022-10-04T15:32:56.861Z,18.20
2022-10-04T15:35:36.223Z,18.20
2022-10-04T15:38:18.997Z,18.20
2022-10-04T15:41:02.075Z,18.20
2022-10-04T15:43:36.771Z,18.20
2022-10-04T15:46:41.207Z,18.20
2022-10-04T15:49:25.723Z,18.20
2022-10-04T15:52:41.595Z,18.20
2022-10-04T15:55:32.146Z,18.20
2022-10-04T15:58:34.316Z,18.10
2022-10-04T16:01:26.352Z,18.10
2022-10-04T16:04:11.471Z,18.10
2022-10-04T16:06:49.051Z,18.10
2022-10-04T16:09:27.607Z,18.10
2022-10-04T16:12:06.286Z,18.10
2022-10-04T16:15:19.855Z,18.00
2022-10-04T16:18:08.510Z,18.00
2022-10-04T16:21:02.113Z,18.00
2022-10-04T16:23:36.862Z,18.00
2022-10-04T16:26:08.137Z,17.90
2022-10-04T16:29:00.732Z,17.90
2022-10-04T16:31:53.442Z,17.80
2022-10-04T16:34:48.190Z,17.80
2022-10-04T16:37:27.211Z,17.80
2022-10-04T16:40:00.970Z,17.80
2022-10-04T16:42:35.307Z,17.70
2022-10-04T16:45:41.193Z,17.70
2022-10-04T16:48:27.010Z,17.60
2022-10-04T16:51:27.875Z,17.60
2022-10-04T16:54:04.832Z,17.60
2022-10-04T16:56:53.922Z,17.50
2022-10-04T16:59:48.403Z,17.50
2022-10-04T17:02:46.895Z,17.50
2022-10-04T17:05:59.511Z,17.40
2022-10-04T17:08:53.268Z,17.40
2022-10-04T17:11:44.222Z,17.30
2022-10-04T17:14:46.378Z,17.20
2022-10-04T17:17:24.278Z,17.20
2022-10-04T17:19:56.930Z,17.20
2022-10-04T17:22:39.371Z,17.20
2022-10-04T17:25:23.363Z,17.10
2022-10-04T17:27:54.945Z,17.10
2022-10-04T17:30:25.873Z,17.00
2022-10-04T17:33:08.936Z,17.00
2022-10-04T17:35:58.446Z,17.00
2022-10-04T17:38:36.351Z,16.90
2022-10-04T17:41:14.245Z,16.90
2022-10-04T17:44:01.347Z,16.90
2022-10-04T17:46:38.023Z,16.80
2022-10-04T17:49:37.361Z,16.80
2022-10-04T17:52:36.744Z,16.70
2022-10-04T17:55:19.683Z,16.70
2022-10-04T17:57:52.711Z,16.60
2022-10-04T18:00:23.788Z,16.60
2022-10-04T18:03:12.888Z,16.50
2022-10-04T18:05:59.246Z,16.50
2022-10-04T18:08:41.357Z,16.40
2022-10-04T18:11:16.715Z,16.40
2022-10-04T18:13:49.726Z,16.30
2022-10-04T18:16:25.008Z,16.30
2022-10-04T18:18:53.212Z,16.20
2022-10-04T18:21:27.395Z,16.10
2022-10-04T18:24:02.309Z,16.10
2022-10-04T18:26:33.663Z,16.00
2022-10-04T18:29:03.539Z,16.00
2022-10-04T18:31:36.878Z,15.90
2022-10-04T18:34:19.575Z,15.90
2022-10-04T18:37:05.512Z,15.80
2022-10-04T18:39:45.500Z,15.70
2022-10-04T18:42:21.532Z,15.70
2022-10-04T18:44:59.158Z,15.70
2022-10-04T18:47:34.637Z,15.60
2022-10-04T18:50:14.750Z,15.60
2022-10-04T18:52:57.540Z,15.50
2022-10-04T18:55:34.540Z,15.50
2022-10-04T18:58:28.640Z,15.50
2022-10-04T19:01:25.603Z,15.40
2022-10-04T19:03:59.557Z,15.40
2022-10-04T19:06:36.553Z,15.40
2022-10-04T19:09:23.219Z,15.30
2022-10-04T19:11:57.380Z,15.30
2022-10-04T19:14:34.920Z,15.30
2022-10-04T19:17:13.480Z,15.20
2022-10-04T19:19:48.198Z,15.20
2022-10-04T19:22:29.153Z,15.20
2022-10-04T19:25:19.451Z,15.10
2022-10-04T19:27:51.457Z,15.10
2022-10-04T19:30:22.243Z,15.10
2022-10-04T19:33:11.728Z,15.00
2022-10-04T19:35:57.719Z,15.00
2022-10-04T19:38:57.729Z,14.90
2022-10-04T19:41:44.490Z,14.90
2022-10-04T19:44:24.845Z,14.90
2022-10-04T19:47:01.773Z,14.80
2022-10-04T19:49:42.999Z,14.80
2022-10-04T19:52:25.007Z,14.80
2022-10-04T19:54:54.462Z,14.80
2022-10-04T19:57:38.191Z,14.80
2022-10-04T20:00:22.745Z,14.80
2022-10-04T20:02:53.662Z,14.70
2022-10-04T20:05:29.596Z,14.70
2022-10-04T20:08:12.624Z,14.70
2022-10-04T20:10:41.393Z,14.70
2022-10-04T20:13:26.456Z,14.60
2022-10-04T20:15:56.949Z,14.60
2022-10-04T20:18:58.655Z,14.60
2022-10-04T20:21:34.879Z,14.50
2022-10-04T20:24:04.981Z,14.50
2022-10-04T20:26:56.008Z,14.50
2022-10-04T20:30:06.878Z,14.50
2022-10-04T20:32:55.856Z,14.40
2022-10-04T20:36:07.020Z,14.40
2022-10-04T20:38:52.322Z,14.40
2022-10-04T20:42:05.139Z,14.30
2022-10-04T20:44:54.182Z,14.30
2022-10-04T20:47:47.729Z,14.30
2022-10-04T20:50:29.536Z,14.20
2022-10-04T20:53:01.063Z,14.20
2022-10-04T20:55:31.146Z,14.10
2022-10-04T20:58:03.972Z,14.10
2022-10-04T21:00:35.408Z,14.10
2022-10-04T21:03:17.826Z,14.10
2022-10-04T21:06:01.143Z,14.00
2022-10-04T21:08:30.062Z,14.00
2022-10-04T21:11:20.025Z,14.00
2022-10-04T21:13:54.522Z,14.00
2022-10-04T21:16:50.899Z,14.00
2022-10-04T21:19:46.597Z,14.00
2022-10-04T21:22:38.401Z,14.00
2022-10-04T21:25:28.253Z,14.00
2022-10-04T21:28:16.447Z,14.10
2022-10-04T21:30:44.594Z,14.00
2022-10-04T21:33:12.662Z,14.00
2022-10-04T21:35:40.825Z,14.10
2022-10-04T21:38:10.862Z,14.00
2022-10-04T21:40:38.946Z,14.00
2022-10-04T21:43:07.086Z,14.00
2022-10-04T21:45:35.332Z,14.00
2022-10-04T21:48:03.437Z,14.00
2022-10-04T21:50:31.512Z,14.00
2022-10-04T21:52:59.815Z,14.00
2022-10-04T21:55:29.301Z,14.00
2022-10-04T21:57:57.377Z,14.00
2022-10-04T22:00:25.468Z,14.00
2022-10-04T22:02:53.625Z,14.00
2022-10-04T22:05:21.985Z,14.00
2022-10-04T22:07:50.047Z,14.00
2022-10-04T22:10:19.003Z,14.00
2022-10-04T22:12:48.498Z,14.00
2022-10-04T22:15:16.685Z,14.00
2022-10-04T22:17:44.754Z,14.00
2022-10-04T22:20:12.848Z,14.00
2022-10-04T22:22:40.959Z,14.00
2022-10-04T22:25:16.262Z,13.90
2022-10-04T22:27:44.422Z,13.90
2022-10-04T22:30:24.009Z,13.90
2022-10-04T22:32:54.890Z,13.90
2022-10-04T22:35:23.356Z,13.80
2022-10-04T22:37:52.124Z,13.90
2022-10-04T22:40:22.724Z,13.80
2022-10-04T22:42:53.109Z,13.80
2022-10-04T22:45:25.063Z,13.80
2022-10-04T22:47:53.151Z,13.80
2022-10-04T22:50:39.444Z,13.90
2022-10-04T22:53:14.730Z,13.90
2022-10-04T22:55:42.915Z,13.90
2022-10-04T22:58:14.103Z,13.90
2022-10-04T23:00:44.558Z,13.90
2022-10-04T23:03:24.085Z,13.90
2022-10-04T23:05:52.208Z,13.90
2022-10-04T23:08:20.286Z,14.00
2022-10-04T23:10:48.687Z,13.90
2022-10-04T23:13:19.225Z,14.00
2022-10-04T23:15:50.760Z,14.00
2022-10-04T23:18:20.141Z,14.00
2022-10-04T23:20:52.847Z,14.00
2022-10-04T23:23:22.213Z,14.00
2022-10-04T23:25:51.047Z,14.00
2022-10-04T23:28:20.449Z,14.00
2022-10-04T23:31:00.961Z,14.00
2022-10-04T23:33:29.076Z,13.90
2022-10-04T23:35:57.583Z,13.90
2022-10-04T23:38:26.226Z,13.90
2022-10-04T23:40:54.306Z,13.90
2022-10-04T23:43:25.982Z,13.90
2022-10-04T23:45:57.434Z,13.90
2022-10-04T23:48:28.074Z,13.90
2022-10-04T23:50:59.797Z,13.90
2022-10-04T23:53:29.707Z,13.90
2022-10-04T23:55:59.199Z,13.90
2022-10-04T23:58:35.127Z,13.90
